sensor_id;sensor_type;location;lat;lon;timestamp;temperature;humidity
7307;DHT22;3694;48.732;9.248;2023-03-12T00:00:16;-3.90;99.90
7307;DHT22;3694;48.732;9.248;2023-03-12T00:02:42;-3.90;99.90
7307;DHT22;3694;48.732;9.248;2023-03-12T00:05:08;-3.90;99.90
7307;DHT22;3694;48.732;9.248;2023-03-12T00:07:33;-3.90;99.90
7307;DHT22;3694;48.732;9.248;2023-03-12T00:10:01;-4.00;99.90
7307;DHT22;3694;48.732;9.248;2023-03-12T00:12:27;-3.90;99.90
7307;DHT22;3694;48.732;9.248;2023-03-12T00:14:53;-3.80;99.90
7307;DHT22;3694;48.732;9.248;2023-03-12T00:17:18;-3.80;99.90
7307;DHT22;3694;48.732;9.248;2023-03-12T00:19:43;-3.70;99.90
7307;DHT22;3694;48.732;9.248;2023-03-12T00:22:10;-3.70;99.90
7307;DHT22;3694;48.732;9.248;2023-03-12T00:24:35;-3.60;99.90
7307;DHT22;3694;48.732;9.248;2023-03-12T00:27:01;-3.60;99.90
7307;DHT22;3694;48.732;9.248;2023-03-12T00:29:26;-3.60;99.90
7307;DHT22;3694;48.732;9.248;2023-03-12T00:31:52;-3.60;99.90
7307;DHT22;3694;48.732;9.248;2023-03-12T00:34:18;-3.50;99.90
7307;DHT22;3694;48.732;9.248;2023-03-12T00:36:43;-3.50;99.90
7307;DHT22;3694;48.732;9.248;2023-03-12T00:39:09;-3.70;99.90
7307;DHT22;3694;48.732;9.248;2023-03-12T00:41:34;-3.70;99.90
7307;DHT22;3694;48.732;9.248;2023-03-12T00:44:00;-3.80;99.90
7307;DHT22;3694;48.732;9.248;2023-03-12T00:46:26;-3.80;99.90
7307;DHT22;3694;48.732;9.248;2023-03-12T00:48:51;-3.80;99.90
7307;DHT22;3694;48.732;9.248;2023-03-12T00:51:17;-3.80;99.90
7307;DHT22;3694;48.732;9.248;2023-03-12T00:53:43;-3.70;99.90
7307;DHT22;3694;48.732;9.248;2023-03-12T00:56:08;-3.70;99.90
7307;DHT22;3694;48.732;9.248;2023-03-12T00:58:34;-3.90;99.90
7307;DHT22;3694;48.732;9.248;2023-03-12T01:01:00;-3.90;99.90
7307;DHT22;3694;48.732;9.248;2023-03-12T01:03:25;-4.10;99.90
7307;DHT22;3694;48.732;9.248;2023-03-12T01:05:51;-4.10;99.90
7307;DHT22;3694;48.732;9.248;2023-03-12T01:08:20;-4.10;99.90
7307;DHT22;3694;48.732;9.248;2023-03-12T01:10:46;-4.00;99.90
7307;DHT22;3694;48.732;9.248;2023-03-12T01:13:11;-4.00;99.90
7307;DHT22;3694;48.732;9.248;2023-03-12T01:15:37;-3.90;99.90
7307;DHT22;3694;48.732;9.248;2023-03-12T01:18:03;-3.70;99.90
7307;DHT22;3694;48.732;9.248;2023-03-12T01:20:29;-3.60;99.90
7307;DHT22;3694;48.732;9.248;2023-03-12T01:22:55;-3.60;99.90
7307;DHT22;3694;48.732;9.248;2023-03-12T01:25:20;-3.60;99.90
7307;DHT22;3694;48.732;9.248;2023-03-12T01:27:46;-3.50;99.90
7307;DHT22;3694;48.732;9.248;2023-03-12T01:30:11;-2.70;99.90
7307;DHT22;3694;48.732;9.248;2023-03-12T01:32:37;-3.20;99.90
7307;DHT22;3694;48.732;9.248;2023-03-12T01:35:03;-3.10;99.90
7307;DHT22;3694;48.732;9.248;2023-03-12T01:37:31;-3.00;99.90
7307;DHT22;3694;48.732;9.248;2023-03-12T01:39:56;-3.00;99.90
7307;DHT22;3694;48.732;9.248;2023-03-12T01:42:22;-2.80;99.90
7307;DHT22;3694;48.732;9.248;2023-03-12T01:44:56;-2.70;99.90
7307;DHT22;3694;48.732;9.248;2023-03-12T01:47:23;-2.60;99.90
7307;DHT22;3694;48.732;9.248;2023-03-12T01:49:50;-2.60;99.90
7307;DHT22;3694;48.732;9.248;2023-03-12T01:55:06;-2.50;99.90
7307;DHT22;3694;48.732;9.248;2023-03-12T01:57:44;-2.40;99.90
7307;DHT22;3694;48.732;9.248;2023-03-12T02:00:19;-2.40;99.90
7307;DHT22;3694;48.732;9.248;2023-03-12T02:02:46;-2.30;99.90
7307;DHT22;3694;48.732;9.248;2023-03-12T02:05:30;-2.30;99.90
7307;DHT22;3694;48.732;9.248;2023-03-12T02:07:56;-2.20;99.90
7307;DHT22;3694;48.732;9.248;2023-03-12T02:10:22;-2.20;99.90
7307;DHT22;3694;48.732;9.248;2023-03-12T02:12:49;-2.10;99.90
7307;DHT22;3694;48.732;9.248;2023-03-12T02:15:14;-2.10;99.90
7307;DHT22;3694;48.732;9.248;2023-03-12T02:17:40;-2.10;99.90
7307;DHT22;3694;48.732;9.248;2023-03-12T02:20:27;-2.00;99.90
7307;DHT22;3694;48.732;9.248;2023-03-12T02:23:09;-2.00;99.90
7307;DHT22;3694;48.732;9.248;2023-03-12T02:25:47;-2.00;99.90
7307;DHT22;3694;48.732;9.248;2023-03-12T02:28:15;-1.90;99.90
7307;DHT22;3694;48.732;9.248;2023-03-12T02:30:45;-1.90;99.90
7307;DHT22;3694;48.732;9.248;2023-03-12T02:33:11;-1.80;99.90
7307;DHT22;3694;48.732;9.248;2023-03-12T02:35:38;-1.80;99.90
7307;DHT22;3694;48.732;9.248;2023-03-12T02:38:37;-1.90;99.90
7307;DHT22;3694;48.732;9.248;2023-03-12T02:43:34;-1.90;99.90
7307;DHT22;3694;48.732;9.248;2023-03-12T02:45:59;-2.00;99.90
7307;DHT22;3694;48.732;9.248;2023-03-12T02:48:25;-2.00;99.90
7307;DHT22;3694;48.732;9.248;2023-03-12T02:50:50;-2.00;99.90
7307;DHT22;3694;48.732;9.248;2023-03-12T02:53:16;-2.00;99.90
7307;DHT22;3694;48.732;9.248;2023-03-12T02:55:41;-2.00;99.90
7307;DHT22;3694;48.732;9.248;2023-03-12T02:58:07;-2.00;99.90
7307;DHT22;3694;48.732;9.248;2023-03-12T03:00:32;-2.10;99.90
7307;DHT22;3694;48.732;9.248;2023-03-12T03:02:59;-2.00;99.90
7307;DHT22;3694;48.732;9.248;2023-03-12T03:05:24;-2.10;99.90
7307;DHT22;3694;48.732;9.248;2023-03-12T03:07:50;-2.20;99.90
7307;DHT22;3694;48.732;9.248;2023-03-12T03:10:15;-2.20;99.90
7307;DHT22;3694;48.732;9.248;2023-03-12T03:12:42;-2.20;99.90
7307;DHT22;3694;48.732;9.248;2023-03-12T03:15:09;-2.20;99.90
7307;DHT22;3694;48.732;9.248;2023-03-12T03:17:35;-2.20;99.90
7307;DHT22;3694;48.732;9.248;2023-03-12T03:20:00;-2.20;99.90
7307;DHT22;3694;48.732;9.248;2023-03-12T03:22:26;-2.20;99.90
7307;DHT22;3694;48.732;9.248;2023-03-12T03:24:53;-2.20;99.90
7307;DHT22;3694;48.732;9.248;2023-03-12T03:27:19;-2.20;99.90
7307;DHT22;3694;48.732;9.248;2023-03-12T03:29:45;-2.20;99.90
7307;DHT22;3694;48.732;9.248;2023-03-12T03:32:11;-2.10;99.90
7307;DHT22;3694;48.732;9.248;2023-03-12T03:34:37;-2.00;99.90
7307;DHT22;3694;48.732;9.248;2023-03-12T03:37:04;-2.10;99.90
7307;DHT22;3694;48.732;9.248;2023-03-12T03:39:29;-2.00;99.90
7307;DHT22;3694;48.732;9.248;2023-03-12T03:41:55;-1.90;99.90
7307;DHT22;3694;48.732;9.248;2023-03-12T03:44:20;-1.90;99.90
7307;DHT22;3694;48.732;9.248;2023-03-12T03:46:47;-1.90;99.90
7307;DHT22;3694;48.732;9.248;2023-03-12T03:49:13;-1.80;99.90
7307;DHT22;3694;48.732;9.248;2023-03-12T03:51:39;-1.70;99.90
7307;DHT22;3694;48.732;9.248;2023-03-12T03:54:07;-1.70;99.90
7307;DHT22;3694;48.732;9.248;2023-03-12T03:56:33;-1.60;99.90
7307;DHT22;3694;48.732;9.248;2023-03-12T03:58:59;-1.60;99.90
7307;DHT22;3694;48.732;9.248;2023-03-12T04:01:26;-1.50;99.90
7307;DHT22;3694;48.732;9.248;2023-03-12T04:03:52;-1.50;99.90
7307;DHT22;3694;48.732;9.248;2023-03-12T04:06:17;-1.40;99.90
7307;DHT22;3694;48.732;9.248;2023-03-12T04:08:43;-1.40;99.90
7307;DHT22;3694;48.732;9.248;2023-03-12T04:11:11;-1.40;99.90
7307;DHT22;3694;48.732;9.248;2023-03-12T04:13:37;-1.30;99.90
7307;DHT22;3694;48.732;9.248;2023-03-12T04:16:03;-1.20;99.90
7307;DHT22;3694;48.732;9.248;2023-03-12T04:18:29;-1.30;99.90
7307;DHT22;3694;48.732;9.248;2023-03-12T04:20:54;-1.20;99.90
7307;DHT22;3694;48.732;9.248;2023-03-12T04:23:20;-1.10;99.90
7307;DHT22;3694;48.732;9.248;2023-03-12T04:25:45;-1.10;99.90
7307;DHT22;3694;48.732;9.248;2023-03-12T04:28:11;-1.20;99.90
7307;DHT22;3694;48.732;9.248;2023-03-12T04:30:36;-1.10;99.90
7307;DHT22;3694;48.732;9.248;2023-03-12T04:33:03;-1.10;99.90
7307;DHT22;3694;48.732;9.248;2023-03-12T04:35:29;-1.40;99.90
7307;DHT22;3694;48.732;9.248;2023-03-12T04:37:55;-1.00;99.90
7307;DHT22;3694;48.732;9.248;2023-03-12T04:40:20;-1.00;99.90
7307;DHT22;3694;48.732;9.248;2023-03-12T04:42:46;-1.00;99.90
7307;DHT22;3694;48.732;9.248;2023-03-12T04:45:12;-1.00;99.90
7307;DHT22;3694;48.732;9.248;2023-03-12T04:47:38;-1.00;99.90
7307;DHT22;3694;48.732;9.248;2023-03-12T04:50:03;-1.00;99.90
7307;DHT22;3694;48.732;9.248;2023-03-12T04:52:29;-0.90;99.90
7307;DHT22;3694;48.732;9.248;2023-03-12T04:54:55;-0.80;99.90
7307;DHT22;3694;48.732;9.248;2023-03-12T04:57:20;-0.80;99.90
7307;DHT22;3694;48.732;9.248;2023-03-12T04:59:46;-0.80;99.90
7307;DHT22;3694;48.732;9.248;2023-03-12T05:02:12;-0.90;99.90
7307;DHT22;3694;48.732;9.248;2023-03-12T05:04:37;-0.90;99.90
7307;DHT22;3694;48.732;9.248;2023-03-12T05:07:03;-0.80;99.90
7307;DHT22;3694;48.732;9.248;2023-03-12T05:09:28;-0.80;99.90
7307;DHT22;3694;48.732;9.248;2023-03-12T05:11:54;-0.80;99.90
7307;DHT22;3694;48.732;9.248;2023-03-12T05:14:20;-0.70;99.90
7307;DHT22;3694;48.732;9.248;2023-03-12T05:16:45;-0.70;99.90
7307;DHT22;3694;48.732;9.248;2023-03-12T05:19:11;-0.70;99.90
7307;DHT22;3694;48.732;9.248;2023-03-12T05:21:39;-0.70;99.90
7307;DHT22;3694;48.732;9.248;2023-03-12T05:24:05;-0.70;99.90
7307;DHT22;3694;48.732;9.248;2023-03-12T05:26:32;-0.70;99.90
7307;DHT22;3694;48.732;9.248;2023-03-12T05:28:59;-0.70;99.90
7307;DHT22;3694;48.732;9.248;2023-03-12T05:31:24;-0.60;99.90
7307;DHT22;3694;48.732;9.248;2023-03-12T05:33:50;-0.60;99.90
7307;DHT22;3694;48.732;9.248;2023-03-12T05:36:16;-0.40;99.90
7307;DHT22;3694;48.732;9.248;2023-03-12T05:38:41;-0.50;99.90
7307;DHT22;3694;48.732;9.248;2023-03-12T05:41:09;-0.50;99.90
7307;DHT22;3694;48.732;9.248;2023-03-12T05:43:37;-0.50;99.90
7307;DHT22;3694;48.732;9.248;2023-03-12T05:46:04;-0.50;99.90
7307;DHT22;3694;48.732;9.248;2023-03-12T05:48:30;-0.50;99.90
7307;DHT22;3694;48.732;9.248;2023-03-12T05:50:56;-0.50;99.90
7307;DHT22;3694;48.732;9.248;2023-03-12T05:53:22;-0.50;99.90
7307;DHT22;3694;48.732;9.248;2023-03-12T05:55:48;-0.50;99.90
7307;DHT22;3694;48.732;9.248;2023-03-12T05:58:13;-0.50;99.90
7307;DHT22;3694;48.732;9.248;2023-03-12T06:00:40;-0.50;99.90
7307;DHT22;3694;48.732;9.248;2023-03-12T06:03:07;-0.50;99.90
7307;DHT22;3694;48.732;9.248;2023-03-12T06:05:34;-0.40;99.90
7307;DHT22;3694;48.732;9.248;2023-03-12T06:08:00;-0.40;99.90
7307;DHT22;3694;48.732;9.248;2023-03-12T06:10:26;-0.40;99.90
7307;DHT22;3694;48.732;9.248;2023-03-12T06:12:52;-0.40;99.90
7307;DHT22;3694;48.732;9.248;2023-03-12T06:15:18;-0.30;99.90
7307;DHT22;3694;48.732;9.248;2023-03-12T06:17:43;-0.30;99.90
7307;DHT22;3694;48.732;9.248;2023-03-12T06:20:10;-0.30;99.90
7307;DHT22;3694;48.732;9.248;2023-03-12T06:22:35;-0.30;99.90
7307;DHT22;3694;48.732;9.248;2023-03-12T06:25:01;-0.30;99.90
7307;DHT22;3694;48.732;9.248;2023-03-12T06:27:27;-0.20;99.90
7307;DHT22;3694;48.732;9.248;2023-03-12T06:29:52;-0.20;99.90
7307;DHT22;3694;48.732;9.248;2023-03-12T06:32:18;-0.20;99.90
7307;DHT22;3694;48.732;9.248;2023-03-12T06:34:44;-0.20;99.90
7307;DHT22;3694;48.732;9.248;2023-03-12T06:37:10;-0.20;99.90
7307;DHT22;3694;48.732;9.248;2023-03-12T06:39:36;-0.10;99.90
7307;DHT22;3694;48.732;9.248;2023-03-12T06:42:02;-0.10;99.90
7307;DHT22;3694;48.732;9.248;2023-03-12T06:44:28;0.00;99.90
7307;DHT22;3694;48.732;9.248;2023-03-12T06:46:54;0.00;99.90
7307;DHT22;3694;48.732;9.248;2023-03-12T06:49:19;0.00;99.90
7307;DHT22;3694;48.732;9.248;2023-03-12T06:51:45;0.10;99.90
7307;DHT22;3694;48.732;9.248;2023-03-12T06:54:10;0.10;99.90
7307;DHT22;3694;48.732;9.248;2023-03-12T06:56:36;0.10;99.90
7307;DHT22;3694;48.732;9.248;2023-03-12T06:59:02;0.20;99.90
7307;DHT22;3694;48.732;9.248;2023-03-12T07:01:28;0.20;99.90
7307;DHT22;3694;48.732;9.248;2023-03-12T07:03:53;0.20;99.90
7307;DHT22;3694;48.732;9.248;2023-03-12T07:06:21;0.20;99.90
7307;DHT22;3694;48.732;9.248;2023-03-12T07:08:48;0.30;99.90
7307;DHT22;3694;48.732;9.248;2023-03-12T07:11:14;0.30;99.90
7307;DHT22;3694;48.732;9.248;2023-03-12T07:13:40;0.30;99.90
7307;DHT22;3694;48.732;9.248;2023-03-12T07:16:06;0.20;99.90
7307;DHT22;3694;48.732;9.248;2023-03-12T07:18:32;0.30;99.90
7307;DHT22;3694;48.732;9.248;2023-03-12T07:20:57;0.40;99.90
7307;DHT22;3694;48.732;9.248;2023-03-12T07:23:23;0.50;99.90
7307;DHT22;3694;48.732;9.248;2023-03-12T07:25:49;0.40;99.90
7307;DHT22;3694;48.732;9.248;2023-03-12T07:28:16;0.40;99.90
7307;DHT22;3694;48.732;9.248;2023-03-12T07:30:42;0.50;99.90
7307;DHT22;3694;48.732;9.248;2023-03-12T07:33:11;0.40;99.90
7307;DHT22;3694;48.732;9.248;2023-03-12T07:35:37;0.60;99.90
7307;DHT22;3694;48.732;9.248;2023-03-12T07:38:05;0.60;99.90
7307;DHT22;3694;48.732;9.248;2023-03-12T07:40:30;0.60;99.90
7307;DHT22;3694;48.732;9.248;2023-03-12T07:42:56;0.70;99.90
7307;DHT22;3694;48.732;9.248;2023-03-12T07:45:23;0.70;99.90
7307;DHT22;3694;48.732;9.248;2023-03-12T07:47:49;0.70;99.90
7307;DHT22;3694;48.732;9.248;2023-03-12T07:50:15;0.80;99.90
7307;DHT22;3694;48.732;9.248;2023-03-12T07:52:41;1.00;99.90
7307;DHT22;3694;48.732;9.248;2023-03-12T07:55:07;1.10;99.90
7307;DHT22;3694;48.732;9.248;2023-03-12T07:57:33;1.20;99.90
7307;DHT22;3694;48.732;9.248;2023-03-12T07:59:58;1.40;99.90
7307;DHT22;3694;48.732;9.248;2023-03-12T08:02:24;1.60;99.90
7307;DHT22;3694;48.732;9.248;2023-03-12T08:04:50;1.60;99.90
7307;DHT22;3694;48.732;9.248;2023-03-12T08:07:15;1.80;99.90
7307;DHT22;3694;48.732;9.248;2023-03-12T08:09:41;2.00;99.90
7307;DHT22;3694;48.732;9.248;2023-03-12T08:12:07;2.10;99.90
7307;DHT22;3694;48.732;9.248;2023-03-12T08:14:33;2.20;99.90
7307;DHT22;3694;48.732;9.248;2023-03-12T08:16:59;2.50;99.90
7307;DHT22;3694;48.732;9.248;2023-03-12T08:19:25;2.80;99.90
7307;DHT22;3694;48.732;9.248;2023-03-12T08:21:51;2.90;99.90
7307;DHT22;3694;48.732;9.248;2023-03-12T08:24:18;2.90;99.90
7307;DHT22;3694;48.732;9.248;2023-03-12T08:26:44;3.00;99.90
7307;DHT22;3694;48.732;9.248;2023-03-12T08:29:10;3.10;99.90
7307;DHT22;3694;48.732;9.248;2023-03-12T08:31:35;3.20;99.90
7307;DHT22;3694;48.732;9.248;2023-03-12T08:34:01;3.20;99.90
7307;DHT22;3694;48.732;9.248;2023-03-12T08:36:26;3.20;99.90
7307;DHT22;3694;48.732;9.248;2023-03-12T08:38:52;3.20;99.90
7307;DHT22;3694;48.732;9.248;2023-03-12T08:41:17;3.20;99.90
7307;DHT22;3694;48.732;9.248;2023-03-12T08:43:43;3.10;99.90
7307;DHT22;3694;48.732;9.248;2023-03-12T08:46:09;3.10;99.90
7307;DHT22;3694;48.732;9.248;2023-03-12T08:48:34;3.20;99.90
7307;DHT22;3694;48.732;9.248;2023-03-12T08:51:01;3.40;99.90
7307;DHT22;3694;48.732;9.248;2023-03-12T08:53:29;3.60;99.90
7307;DHT22;3694;48.732;9.248;2023-03-12T08:55:56;4.00;99.90
7307;DHT22;3694;48.732;9.248;2023-03-12T08:58:23;4.30;99.90
7307;DHT22;3694;48.732;9.248;2023-03-12T09:00:50;4.40;99.90
7307;DHT22;3694;48.732;9.248;2023-03-12T09:03:16;4.40;99.90
7307;DHT22;3694;48.732;9.248;2023-03-12T09:05:41;4.70;99.90
7307;DHT22;3694;48.732;9.248;2023-03-12T09:08:08;4.80;99.90
7307;DHT22;3694;48.732;9.248;2023-03-12T09:10:34;4.90;99.90
7307;DHT22;3694;48.732;9.248;2023-03-12T09:13:01;4.90;99.90
7307;DHT22;3694;48.732;9.248;2023-03-12T09:15:27;5.00;99.90
7307;DHT22;3694;48.732;9.248;2023-03-12T09:17:52;5.10;99.90
7307;DHT22;3694;48.732;9.248;2023-03-12T09:20:20;5.20;99.90
7307;DHT22;3694;48.732;9.248;2023-03-12T09:22:46;5.30;99.90
7307;DHT22;3694;48.732;9.248;2023-03-12T09:25:12;5.20;99.90
7307;DHT22;3694;48.732;9.248;2023-03-12T09:27:46;5.40;99.90
7307;DHT22;3694;48.732;9.248;2023-03-12T09:30:14;5.40;99.90
7307;DHT22;3694;48.732;9.248;2023-03-12T09:32:39;5.60;99.90
7307;DHT22;3694;48.732;9.248;2023-03-12T09:35:06;5.80;99.90
7307;DHT22;3694;48.732;9.248;2023-03-12T09:37:32;6.40;99.90
7307;DHT22;3694;48.732;9.248;2023-03-12T09:39:58;6.90;99.90
7307;DHT22;3694;48.732;9.248;2023-03-12T09:42:27;7.00;99.90
7307;DHT22;3694;48.732;9.248;2023-03-12T09:44:56;7.20;99.90
7307;DHT22;3694;48.732;9.248;2023-03-12T09:47:29;7.30;99.90
7307;DHT22;3694;48.732;9.248;2023-03-12T09:50:00;7.20;99.90
7307;DHT22;3694;48.732;9.248;2023-03-12T09:52:47;7.20;99.90
7307;DHT22;3694;48.732;9.248;2023-03-12T09:55:18;7.30;99.90
7307;DHT22;3694;48.732;9.248;2023-03-12T09:57:45;7.50;99.90
7307;DHT22;3694;48.732;9.248;2023-03-12T10:00:17;7.70;99.90
7307;DHT22;3694;48.732;9.248;2023-03-12T10:08:28;8.00;99.90
7307;DHT22;3694;48.732;9.248;2023-03-12T10:11:08;8.30;99.90
7307;DHT22;3694;48.732;9.248;2023-03-12T10:16:29;8.80;99.90
7307;DHT22;3694;48.732;9.248;2023-03-12T10:19:12;9.30;99.90
7307;DHT22;3694;48.732;9.248;2023-03-12T10:22:06;9.60;99.90
7307;DHT22;3694;48.732;9.248;2023-03-12T10:27:15;10.30;99.90
7307;DHT22;3694;48.732;9.248;2023-03-12T10:29:43;10.40;99.80
7307;DHT22;3694;48.732;9.248;2023-03-12T10:34:45;10.50;99.90
7307;DHT22;3694;48.732;9.248;2023-03-12T10:40:20;10.70;99.90
7307;DHT22;3694;48.732;9.248;2023-03-12T10:42:47;10.80;99.90
7307;DHT22;3694;48.732;9.248;2023-03-12T10:45:25;10.70;99.90
7307;DHT22;3694;48.732;9.248;2023-03-12T10:47:59;10.80;99.90
7307;DHT22;3694;48.732;9.248;2023-03-12T10:50:34;11.00;99.90
7307;DHT22;3694;48.732;9.248;2023-03-12T10:53:39;11.00;99.90
7307;DHT22;3694;48.732;9.248;2023-03-12T10:56:09;10.80;99.90
7307;DHT22;3694;48.732;9.248;2023-03-12T10:58:42;10.50;99.90
7307;DHT22;3694;48.732;9.248;2023-03-12T11:01:15;10.10;99.90
7307;DHT22;3694;48.732;9.248;2023-03-12T11:03:43;10.00;99.90
7307;DHT22;3694;48.732;9.248;2023-03-12T11:06:20;9.90;99.90
7307;DHT22;3694;48.732;9.248;2023-03-12T11:09:16;9.80;99.90
7307;DHT22;3694;48.732;9.248;2023-03-12T11:11:44;10.30;99.90
7307;DHT22;3694;48.732;9.248;2023-03-12T11:14:24;10.80;99.90
7307;DHT22;3694;48.732;9.248;2023-03-12T11:16:51;11.10;99.90
7307;DHT22;3694;48.732;9.248;2023-03-12T11:19:27;11.70;99.90
7307;DHT22;3694;48.732;9.248;2023-03-12T11:21:59;12.00;99.90
7307;DHT22;3694;48.732;9.248;2023-03-12T11:24:25;12.10;99.90
7307;DHT22;3694;48.732;9.248;2023-03-12T11:27:05;12.30;98.80
7307;DHT22;3694;48.732;9.248;2023-03-12T11:29:38;12.10;98.60
7307;DHT22;3694;48.732;9.248;2023-03-12T11:32:14;12.20;98.80
7307;DHT22;3694;48.732;9.248;2023-03-12T11:34:41;12.20;98.60
7307;DHT22;3694;48.732;9.248;2023-03-12T11:39:59;12.20;98.70
7307;DHT22;3694;48.732;9.248;2023-03-12T11:45:35;12.40;98.80
7307;DHT22;3694;48.732;9.248;2023-03-12T11:56:15;12.30;98.30
7307;DHT22;3694;48.732;9.248;2023-03-12T12:04:20;12.30;98.40
7307;DHT22;3694;48.732;9.248;2023-03-12T12:07:05;12.40;98.10
7307;DHT22;3694;48.732;9.248;2023-03-12T12:09:45;12.30;98.10
7307;DHT22;3694;48.732;9.248;2023-03-12T12:12:18;12.50;98.10
7307;DHT22;3694;48.732;9.248;2023-03-12T12:15:18;12.50;97.60
7307;DHT22;3694;48.732;9.248;2023-03-12T12:20:57;12.40;97.60
7307;DHT22;3694;48.732;9.248;2023-03-12T12:29:10;12.50;97.30
7307;DHT22;3694;48.732;9.248;2023-03-12T12:31:52;13.00;96.80
7307;DHT22;3694;48.732;9.248;2023-03-12T12:39:41;13.40;95.80
7307;DHT22;3694;48.732;9.248;2023-03-12T12:42:15;13.70;95.50
7307;DHT22;3694;48.732;9.248;2023-03-12T12:44:52;13.60;95.00
7307;DHT22;3694;48.732;9.248;2023-03-12T12:47:34;13.80;94.80
7307;DHT22;3694;48.732;9.248;2023-03-12T12:50:01;13.70;94.50
7307;DHT22;3694;48.732;9.248;2023-03-12T12:52:27;13.50;94.70
7307;DHT22;3694;48.732;9.248;2023-03-12T13:02:49;12.90;94.60
7307;DHT22;3694;48.732;9.248;2023-03-12T13:05:21;12.60;94.70
7307;DHT22;3694;48.732;9.248;2023-03-12T13:07:49;12.10;94.60
7307;DHT22;3694;48.732;9.248;2023-03-12T13:13:18;11.60;95.60
7307;DHT22;3694;48.732;9.248;2023-03-12T13:15:45;11.50;95.70
7307;DHT22;3694;48.732;9.248;2023-03-12T13:18:40;11.30;95.80
7307;DHT22;3694;48.732;9.248;2023-03-12T13:27:24;10.90;96.80
7307;DHT22;3694;48.732;9.248;2023-03-12T13:29:42;10.80;98.00
7307;DHT22;3694;48.732;9.248;2023-03-12T13:34:56;11.00;99.70
7307;DHT22;3694;48.732;9.248;2023-03-12T13:43:12;11.80;97.30
7307;DHT22;3694;48.732;9.248;2023-03-12T13:48:14;11.50;97.10
7307;DHT22;3694;48.732;9.248;2023-03-12T13:50:51;11.50;96.80
7307;DHT22;3694;48.732;9.248;2023-03-12T13:53:33;11.30;97.00
7307;DHT22;3694;48.732;9.248;2023-03-12T13:56:26;11.30;97.30
7307;DHT22;3694;48.732;9.248;2023-03-12T13:59:02;11.40;97.00
7307;DHT22;3694;48.732;9.248;2023-03-12T14:01:31;11.70;97.10
7307;DHT22;3694;48.732;9.248;2023-03-12T14:04:03;12.10;96.60
7307;DHT22;3694;48.732;9.248;2023-03-12T14:06:35;12.00;96.30
7307;DHT22;3694;48.732;9.248;2023-03-12T14:12:24;12.00;95.90
7307;DHT22;3694;48.732;9.248;2023-03-12T14:15:20;12.10;95.90
7307;DHT22;3694;48.732;9.248;2023-03-12T14:17:54;12.40;95.60
7307;DHT22;3694;48.732;9.248;2023-03-12T14:20:21;12.40;94.70
7307;DHT22;3694;48.732;9.248;2023-03-12T14:22:59;12.40;94.50
7307;DHT22;3694;48.732;9.248;2023-03-12T14:25:39;12.40;94.60
7307;DHT22;3694;48.732;9.248;2023-03-12T14:28:16;12.30;94.40
7307;DHT22;3694;48.732;9.248;2023-03-12T14:31:02;12.10;94.30
7307;DHT22;3694;48.732;9.248;2023-03-12T14:33:51;12.00;94.20
7307;DHT22;3694;48.732;9.248;2023-03-12T14:36:21;12.00;94.60
7307;DHT22;3694;48.732;9.248;2023-03-12T14:38:48;11.90;94.60
7307;DHT22;3694;48.732;9.248;2023-03-12T14:41:35;12.00;94.60
7307;DHT22;3694;48.732;9.248;2023-03-12T14:44:20;12.00;94.80
7307;DHT22;3694;48.732;9.248;2023-03-12T14:46:55;11.90;94.50
7307;DHT22;3694;48.732;9.248;2023-03-12T14:49:21;11.70;94.60
7307;DHT22;3694;48.732;9.248;2023-03-12T14:51:47;11.60;94.90
7307;DHT22;3694;48.732;9.248;2023-03-12T14:54:18;11.60;95.10
7307;DHT22;3694;48.732;9.248;2023-03-12T14:56:44;11.90;94.80
7307;DHT22;3694;48.732;9.248;2023-03-12T14:59:28;11.90;94.70
7307;DHT22;3694;48.732;9.248;2023-03-12T15:02:03;11.90;95.00
7307;DHT22;3694;48.732;9.248;2023-03-12T15:04:35;12.00;94.80
7307;DHT22;3694;48.732;9.248;2023-03-12T15:07:03;12.10;94.80
7307;DHT22;3694;48.732;9.248;2023-03-12T15:09:30;12.10;94.60
7307;DHT22;3694;48.732;9.248;2023-03-12T15:12:02;12.00;94.70
7307;DHT22;3694;48.732;9.248;2023-03-12T15:14:34;12.00;94.90
7307;DHT22;3694;48.732;9.248;2023-03-12T15:17:03;11.90;94.70
7307;DHT22;3694;48.732;9.248;2023-03-12T15:19:32;11.70;94.50
7307;DHT22;3694;48.732;9.248;2023-03-12T15:21:59;11.50;94.40
7307;DHT22;3694;48.732;9.248;2023-03-12T15:24:25;11.50;94.40
7307;DHT22;3694;48.732;9.248;2023-03-12T15:26:53;11.40;94.70
7307;DHT22;3694;48.732;9.248;2023-03-12T15:29:26;11.40;94.40
7307;DHT22;3694;48.732;9.248;2023-03-12T15:31:57;11.30;94.30
7307;DHT22;3694;48.732;9.248;2023-03-12T15:34:28;11.30;94.30
7307;DHT22;3694;48.732;9.248;2023-03-12T15:36:56;11.30;93.90
7307;DHT22;3694;48.732;9.248;2023-03-12T15:39:29;11.30;93.80
7307;DHT22;3694;48.732;9.248;2023-03-12T15:41:59;11.30;93.70
7307;DHT22;3694;48.732;9.248;2023-03-12T15:44:35;11.20;93.60
7307;DHT22;3694;48.732;9.248;2023-03-12T15:47:19;11.20;93.50
7307;DHT22;3694;48.732;9.248;2023-03-12T15:50:17;11.20;93.80
7307;DHT22;3694;48.732;9.248;2023-03-12T15:52:58;11.10;94.00
7307;DHT22;3694;48.732;9.248;2023-03-12T15:55:28;11.10;93.70
7307;DHT22;3694;48.732;9.248;2023-03-12T15:57:56;11.00;93.90
7307;DHT22;3694;48.732;9.248;2023-03-12T16:00:26;10.90;93.80
7307;DHT22;3694;48.732;9.248;2023-03-12T16:02:57;11.00;94.10
7307;DHT22;3694;48.732;9.248;2023-03-12T16:05:39;10.90;94.10
7307;DHT22;3694;48.732;9.248;2023-03-12T16:08:22;10.90;93.70
7307;DHT22;3694;48.732;9.248;2023-03-12T16:10:51;10.80;94.00
7307;DHT22;3694;48.732;9.248;2023-03-12T16:13:20;10.80;93.80
7307;DHT22;3694;48.732;9.248;2023-03-12T16:15:47;10.80;93.90
7307;DHT22;3694;48.732;9.248;2023-03-12T16:18:14;10.80;93.90
7307;DHT22;3694;48.732;9.248;2023-03-12T16:20:40;10.80;93.80
7307;DHT22;3694;48.732;9.248;2023-03-12T16:23:06;10.80;93.90
7307;DHT22;3694;48.732;9.248;2023-03-12T16:25:32;10.80;94.10
7307;DHT22;3694;48.732;9.248;2023-03-12T16:28:04;10.70;94.10
7307;DHT22;3694;48.732;9.248;2023-03-12T16:30:33;10.70;94.00
7307;DHT22;3694;48.732;9.248;2023-03-12T16:33:01;10.70;94.10
7307;DHT22;3694;48.732;9.248;2023-03-12T16:35:27;10.60;94.20
7307;DHT22;3694;48.732;9.248;2023-03-12T16:37:53;10.60;94.10
7307;DHT22;3694;48.732;9.248;2023-03-12T16:40:19;10.50;94.20
7307;DHT22;3694;48.732;9.248;2023-03-12T16:42:52;10.40;94.40
7307;DHT22;3694;48.732;9.248;2023-03-12T16:45:19;10.30;94.40
7307;DHT22;3694;48.732;9.248;2023-03-12T16:47:50;10.30;94.50
7307;DHT22;3694;48.732;9.248;2023-03-12T16:50:20;10.20;94.60
7307;DHT22;3694;48.732;9.248;2023-03-12T16:52:46;10.20;94.70
7307;DHT22;3694;48.732;9.248;2023-03-12T16:55:13;10.20;94.80
7307;DHT22;3694;48.732;9.248;2023-03-12T16:57:51;10.20;94.60
7307;DHT22;3694;48.732;9.248;2023-03-12T17:00:22;10.20;94.80
7307;DHT22;3694;48.732;9.248;2023-03-12T17:02:50;10.10;94.70
7307;DHT22;3694;48.732;9.248;2023-03-12T17:05:19;10.10;94.70
7307;DHT22;3694;48.732;9.248;2023-03-12T17:07:45;10.00;94.80
7307;DHT22;3694;48.732;9.248;2023-03-12T17:10:13;9.90;95.30
7307;DHT22;3694;48.732;9.248;2023-03-12T17:12:40;9.80;95.50
7307;DHT22;3694;48.732;9.248;2023-03-12T17:15:22;9.70;95.60
7307;DHT22;3694;48.732;9.248;2023-03-12T17:17:50;9.60;95.90
7307;DHT22;3694;48.732;9.248;2023-03-12T17:20:18;9.50;96.00
7307;DHT22;3694;48.732;9.248;2023-03-12T17:22:44;9.30;96.30
7307;DHT22;3694;48.732;9.248;2023-03-12T17:25:25;9.20;96.70
7307;DHT22;3694;48.732;9.248;2023-03-12T17:27:52;9.10;97.00
7307;DHT22;3694;48.732;9.248;2023-03-12T17:30:21;9.10;97.20
7307;DHT22;3694;48.732;9.248;2023-03-12T17:32:48;9.00;97.40
7307;DHT22;3694;48.732;9.248;2023-03-12T17:35:14;9.00;97.60
7307;DHT22;3694;48.732;9.248;2023-03-12T17:37:40;9.00;97.60
7307;DHT22;3694;48.732;9.248;2023-03-12T17:40:06;8.90;97.70
7307;DHT22;3694;48.732;9.248;2023-03-12T17:42:34;8.90;97.70